EmailTwitter


Observations de surface / Québec / EGDR

Régions: Québec | Canada | États-Unis | Europe | France | UK | Elsewhere
Station
Affichage
Infos & localisation pour EGDR | Aide pour décoder les METARs

Observations prises le 2017-05-26 à 00H50 UTC à CULDROSE (NAVY), UK (EGDR)

Température: 14.0 Celsius

Point de rosée: 12.0 Celsius

Humidité relative: 88%

Facteur vent (rafales): 11.

Vents: Est-nord-est à 24 km/h ou 13 noeuds.

Rafale du vent: 44 km/h ou 24 noeuds.

Pression au niveau moyen de la mer: 101.50 kilopascals.

Observation METAR:

EGDR 260050Z 07013G24KT CAVOK 14/12 Q1015 BLU=